Terminal Aerodrome Forecast
Issued by NWS

Home | Current Version | Previous Version | Text Only | Print | Product List | Glossary On
Versions: 1 2 3 4 5 6 7 8 9 10 11 12
000
FTUS45 KRIW 270500
TAFBPI
TAF
KBPI 270523Z 2706/2806 17006KT P6SM VCSH BKN025
      TEMPO 2706/2710 3SM -SN BKN015
     FM271400 VRB04KT P6SM SCT035
     FM271600 VRB04KT P6SM SCT040 SCT090
     FM272100 VRB04KT P6SM FEW040 BKN080
     FM280000 VRB04KT P6SM VCSH SCT030 BKN040=

USA.gov is the U.S. government's official web portal to all federal, state and local government web resources and services.